sensor_id;sensor_type;location;lat;lon;timestamp;pressure;altitude;pressure_sealevel;temperature;humidity
37206;BME280;23099;42.636;23.198;2022-09-09T00:01:58;92300.28;;;15.78;91.69
37206;BME280;23099;42.636;23.198;2022-09-09T00:04:27;92301.81;;;15.86;91.35
37206;BME280;23099;42.636;23.198;2022-09-09T00:07:05;92305.66;;;15.92;90.70
37206;BME280;23099;42.636;23.198;2022-09-09T00:09:39;92287.97;;;15.80;90.43
37206;BME280;23099;42.636;23.198;2022-09-09T00:12:15;92298.34;;;15.89;90.14
37206;BME280;23099;42.636;23.198;2022-09-09T00:14:48;92297.59;;;15.85;90.52
37206;BME280;23099;42.636;23.198;2022-09-09T00:17:31;92293.34;;;15.87;90.09
37206;BME280;23099;42.636;23.198;2022-09-09T00:20:03;92289.88;;;15.87;90.25
37206;BME280;23099;42.636;23.198;2022-09-09T00:22:39;92279.88;;;15.84;90.49
37206;BME280;23099;42.636;23.198;2022-09-09T00:25:11;92271.78;;;15.70;90.71
37206;BME280;23099;42.636;23.198;2022-09-09T00:27:42;92261.38;;;15.79;90.19
37206;BME280;23099;42.636;23.198;2022-09-09T00:30:16;92255.63;;;15.77;90.27
37206;BME280;23099;42.636;23.198;2022-09-09T00:32:45;92256.38;;;15.77;90.72
37206;BME280;23099;42.636;23.198;2022-09-09T00:35:17;92250.22;;;15.77;91.04
37206;BME280;23099;42.636;23.198;2022-09-09T00:37:46;92246.75;;;15.80;91.03
37206;BME280;23099;42.636;23.198;2022-09-09T00:40:23;92251.38;;;15.83;91.04
37206;BME280;23099;42.636;23.198;2022-09-09T00:43:05;92252.91;;;15.87;90.83
37206;BME280;23099;42.636;23.198;2022-09-09T00:45:53;92252.53;;;15.96;90.33
37206;BME280;23099;42.636;23.198;2022-09-09T00:48:29;92245.97;;;16.01;90.29
37206;BME280;23099;42.636;23.198;2022-09-09T00:51:03;92257.16;;;15.96;90.42
37206;BME280;23099;42.636;23.198;2022-09-09T00:53:39;92251.38;;;15.90;89.88
37206;BME280;23099;42.636;23.198;2022-09-09T00:56:12;92252.91;;;15.95;89.87
37206;BME280;23099;42.636;23.198;2022-09-09T00:58:42;92257.13;;;15.88;90.15
37206;BME280;23099;42.636;23.198;2022-09-09T01:01:12;92260.59;;;15.93;89.84
37206;BME280;23099;42.636;23.198;2022-09-09T01:03:42;92259.84;;;15.88;89.92
37206;BME280;23099;42.636;23.198;2022-09-09T01:06:16;92253.28;;;15.89;90.12
37206;BME280;23099;42.636;23.198;2022-09-09T01:09:07;92263.72;;;15.84;90.46
37206;BME280;23099;42.636;23.198;2022-09-09T01:11:46;92259.84;;;15.78;90.63
37206;BME280;23099;42.636;23.198;2022-09-09T01:14:24;92268.31;;;15.76;90.92
37206;BME280;23099;42.636;23.198;2022-09-09T01:16:54;92266.78;;;15.72;91.15
37206;BME280;23099;42.636;23.198;2022-09-09T01:19:30;92257.16;;;15.71;90.90
37206;BME280;23099;42.636;23.198;2022-09-09T01:22:11;92263.69;;;15.59;90.76
37206;BME280;23099;42.636;23.198;2022-09-09T01:24:51;92268.25;;;15.44;91.17
37206;BME280;23099;42.636;23.198;2022-09-09T01:27:23;92262.88;;;15.37;91.49
37206;BME280;23099;42.636;23.198;2022-09-09T01:29:51;92262.50;;;15.25;91.40
37206;BME280;23099;42.636;23.198;2022-09-09T01:32:40;92260.56;;;15.14;91.84
37206;BME280;23099;42.636;23.198;2022-09-09T01:35:10;92254.38;;;15.10;92.78
37206;BME280;23099;42.636;23.198;2022-09-09T01:37:37;92271.69;;;15.13;92.89
37206;BME280;23099;42.636;23.198;2022-09-09T01:40:05;92267.44;;;15.08;92.09
37206;BME280;23099;42.636;23.198;2022-09-09T01:42:33;92266.66;;;14.97;92.24
37206;BME280;23099;42.636;23.198;2022-09-09T01:45:00;92259.34;;;15.01;92.72
37206;BME280;23099;42.636;23.198;2022-09-09T01:47:27;92269.75;;;15.06;92.90
37206;BME280;23099;42.636;23.198;2022-09-09T01:49:54;92255.16;;;15.14;92.18
37206;BME280;23099;42.636;23.198;2022-09-09T01:52:20;92268.22;;;15.09;92.71
37206;BME280;23099;42.636;23.198;2022-09-09T01:54:47;92272.44;;;15.06;92.73
37206;BME280;23099;42.636;23.198;2022-09-09T01:57:18;92272.47;;;15.10;93.04
37206;BME280;23099;42.636;23.198;2022-09-09T01:59:57;92254.41;;;15.14;93.08
37206;BME280;23099;42.636;23.198;2022-09-09T02:02:32;92257.88;;;15.21;92.71
37206;BME280;23099;42.636;23.198;2022-09-09T02:05:07;92259.78;;;15.25;92.55
37206;BME280;23099;42.636;23.198;2022-09-09T02:07:40;92257.88;;;15.25;93.31
37206;BME280;23099;42.636;23.198;2022-09-09T02:10:11;92257.88;;;15.32;93.75
37206;BME280;23099;42.636;23.198;2022-09-09T02:12:41;92255.59;;;15.41;93.27
37206;BME280;23099;42.636;23.198;2022-09-09T02:15:18;92249.81;;;15.46;91.90
37206;BME280;23099;42.636;23.198;2022-09-09T02:17:49;92253.66;;;15.38;92.23
37206;BME280;23099;42.636;23.198;2022-09-09T02:20:18;92252.50;;;15.46;92.24
37206;BME280;23099;42.636;23.198;2022-09-09T02:22:48;92250.56;;;15.36;92.23
37206;BME280;23099;42.636;23.198;2022-09-09T02:25:18;92256.75;;;15.40;90.79
37206;BME280;23099;42.636;23.198;2022-09-09T02:27:47;92265.94;;;15.32;90.78
37206;BME280;23099;42.636;23.198;2022-09-09T02:30:18;92258.66;;;15.29;91.41
37206;BME280;23099;42.636;23.198;2022-09-09T02:32:46;92254.41;;;15.28;91.31
37206;BME280;23099;42.636;23.198;2022-09-09T02:35:17;92271.34;;;15.29;92.47
37206;BME280;23099;42.636;23.198;2022-09-09T02:37:46;92275.56;;;15.33;92.32
37206;BME280;23099;42.636;23.198;2022-09-09T02:40:14;92276.34;;;15.34;91.71
37206;BME280;23099;42.636;23.198;2022-09-09T02:42:43;92277.50;;;15.40;91.62
37206;BME280;23099;42.636;23.198;2022-09-09T02:45:11;92280.59;;;15.42;91.95
37206;BME280;23099;42.636;23.198;2022-09-09T02:47:44;92272.53;;;15.42;91.87
37206;BME280;23099;42.636;23.198;2022-09-09T02:50:17;92275.59;;;15.40;91.49
37206;BME280;23099;42.636;23.198;2022-09-09T02:52:56;92284.81;;;15.36;90.40
37206;BME280;23099;42.636;23.198;2022-09-09T02:55:38;92277.50;;;15.29;90.39
37206;BME280;23099;42.636;23.198;2022-09-09T02:58:08;92284.78;;;15.21;90.20
37206;BME280;23099;42.636;23.198;2022-09-09T03:00:37;92279.41;;;15.14;90.69
37206;BME280;23099;42.636;23.198;2022-09-09T03:03:06;92276.69;;;15.11;91.55
37206;BME280;23099;42.636;23.198;2022-09-09T03:05:34;92279.75;;;15.09;91.80
37206;BME280;23099;42.636;23.198;2022-09-09T03:08:01;92279.00;;;15.09;91.86
37206;BME280;23099;42.636;23.198;2022-09-09T03:10:28;92278.63;;;15.10;92.12
37206;BME280;23099;42.636;23.198;2022-09-09T03:12:55;92279.34;;;15.04;91.80
37206;BME280;23099;42.636;23.198;2022-09-09T03:15:22;92275.91;;;15.00;90.20
37206;BME280;23099;42.636;23.198;2022-09-09T03:17:48;92274.31;;;14.88;90.17
37206;BME280;23099;42.636;23.198;2022-09-09T03:20:17;92275.84;;;14.85;90.45
37206;BME280;23099;42.636;23.198;2022-09-09T03:22:44;92284.28;;;14.88;91.13
37206;BME280;23099;42.636;23.198;2022-09-09T03:25:11;92273.88;;;14.75;91.29
37206;BME280;23099;42.636;23.198;2022-09-09T03:27:37;92269.25;;;14.69;91.50
37206;BME280;23099;42.636;23.198;2022-09-09T03:30:05;92271.56;;;14.67;91.54
37206;BME280;23099;42.636;23.198;2022-09-09T03:32:32;92267.66;;;14.57;91.93
37206;BME280;23099;42.636;23.198;2022-09-09T03:34:59;92264.97;;;14.54;92.52
37206;BME280;23099;42.636;23.198;2022-09-09T03:37:27;92271.88;;;14.51;92.97
37206;BME280;23099;42.636;23.198;2022-09-09T03:39:53;92270.28;;;14.43;93.18
37206;BME280;23099;42.636;23.198;2022-09-09T03:42:21;92270.28;;;14.43;93.09
37206;BME280;23099;42.636;23.198;2022-09-09T03:44:47;92264.16;;;14.42;93.29
37206;BME280;23099;42.636;23.198;2022-09-09T03:47:16;92275.28;;;14.41;93.63
37206;BME280;23099;42.636;23.198;2022-09-09T03:49:43;92271.81;;;14.44;94.10
37206;BME280;23099;42.636;23.198;2022-09-09T03:52:10;92275.72;;;14.50;94.18
37206;BME280;23099;42.636;23.198;2022-09-09T03:54:38;92268.81;;;14.53;94.38
37206;BME280;23099;42.636;23.198;2022-09-09T03:57:08;92263.81;;;14.55;94.53
37206;BME280;23099;42.636;23.198;2022-09-09T03:59:35;92267.31;;;14.62;94.48
37206;BME280;23099;42.636;23.198;2022-09-09T04:02:02;92269.63;;;14.67;94.40
37206;BME280;23099;42.636;23.198;2022-09-09T04:04:29;92273.50;;;14.70;94.58
37206;BME280;23099;42.636;23.198;2022-09-09T04:06:56;92278.13;;;14.76;94.88
37206;BME280;23099;42.636;23.198;2022-09-09T04:09:23;92271.22;;;14.79;94.32
37206;BME280;23099;42.636;23.198;2022-09-09T04:11:51;92272.00;;;14.83;94.32
37206;BME280;23099;42.636;23.198;2022-09-09T04:14:18;92276.59;;;14.86;93.84
37206;BME280;23099;42.636;23.198;2022-09-09T04:16:45;92271.63;;;14.88;93.93
37206;BME280;23099;42.636;23.198;2022-09-09T04:19:12;92259.69;;;14.89;93.70
37206;BME280;23099;42.636;23.198;2022-09-09T04:21:40;92265.50;;;14.95;93.57
37206;BME280;23099;42.636;23.198;2022-09-09T04:24:07;92258.97;;;15.03;93.44
37206;BME280;23099;42.636;23.198;2022-09-09T04:26:35;92262.03;;;15.01;93.44
37206;BME280;23099;42.636;23.198;2022-09-09T04:29:04;92270.88;;;15.02;93.53
37206;BME280;23099;42.636;23.198;2022-09-09T04:31:33;92263.97;;;15.01;93.23
37206;BME280;23099;42.636;23.198;2022-09-09T04:34:00;92270.13;;;14.98;93.48
37206;BME280;23099;42.636;23.198;2022-09-09T04:36:30;92272.81;;;14.98;93.92
37206;BME280;23099;42.636;23.198;2022-09-09T04:38:58;92277.06;;;15.06;93.72
37206;BME280;23099;42.636;23.198;2022-09-09T04:41:25;92281.31;;;15.10;93.76
37206;BME280;23099;42.636;23.198;2022-09-09T04:43:51;92280.91;;;15.15;93.92
37206;BME280;23099;42.636;23.198;2022-09-09T04:46:20;92267.84;;;15.21;93.87
37206;BME280;23099;42.636;23.198;2022-09-09T04:48:48;92262.09;;;15.26;93.63
37206;BME280;23099;42.636;23.198;2022-09-09T04:51:15;92261.34;;;15.33;93.57
37206;BME280;23099;42.636;23.198;2022-09-09T04:53:42;92274.44;;;15.41;93.35
37206;BME280;23099;42.636;23.198;2022-09-09T04:56:10;92265.56;;;15.44;93.45
37206;BME280;23099;42.636;23.198;2022-09-09T04:58:38;92265.56;;;15.44;93.70
37206;BME280;23099;42.636;23.198;2022-09-09T05:01:08;92264.41;;;15.31;94.36
37206;BME280;23099;42.636;23.198;2022-09-09T05:03:36;92256.72;;;15.37;94.27
37206;BME280;23099;42.636;23.198;2022-09-09T05:06:05;92240.59;;;15.40;94.28
37206;BME280;23099;42.636;23.198;2022-09-09T05:08:34;92240.56;;;15.33;93.92
37206;BME280;23099;42.636;23.198;2022-09-09T05:11:01;92236.72;;;15.38;93.97
37206;BME280;23099;42.636;23.198;2022-09-09T05:13:28;92244.81;;;15.38;94.09
37206;BME280;23099;42.636;23.198;2022-09-09T05:15:57;92243.28;;;15.40;94.37
37206;BME280;23099;42.636;23.198;2022-09-09T05:18:24;92237.88;;;15.40;94.45
37206;BME280;23099;42.636;23.198;2022-09-09T05:20:52;92215.19;;;15.38;95.14
37206;BME280;23099;42.636;23.198;2022-09-09T05:23:19;92223.25;;;15.45;95.16
37206;BME280;23099;42.636;23.198;2022-09-09T05:25:54;92231.38;;;15.55;94.57
37206;BME280;23099;42.636;23.198;2022-09-09T05:28:22;92234.44;;;15.65;94.09
37206;BME280;23099;42.636;23.198;2022-09-09T05:30:55;92233.31;;;15.69;94.36
37206;BME280;23099;42.636;23.198;2022-09-09T05:33:22;92243.69;;;15.78;94.09
37206;BME280;23099;42.636;23.198;2022-09-09T05:35:58;92237.91;;;15.79;94.10
37206;BME280;23099;42.636;23.198;2022-09-09T05:38:27;92234.06;;;15.77;94.95
37206;BME280;23099;42.636;23.198;2022-09-09T05:40:54;92237.50;;;15.91;94.57
37206;BME280;23099;42.636;23.198;2022-09-09T05:43:22;92239.81;;;15.93;95.15
37206;BME280;23099;42.636;23.198;2022-09-09T05:45:59;92245.97;;;15.97;95.88
37206;BME280;23099;42.636;23.198;2022-09-09T05:48:27;92259.03;;;16.02;95.70
37206;BME280;23099;42.636;23.198;2022-09-09T05:50:55;92249.03;;;16.03;95.06
37206;BME280;23099;42.636;23.198;2022-09-09T05:53:22;92254.03;;;16.15;94.42
37206;BME280;23099;42.636;23.198;2022-09-09T05:55:49;92246.31;;;16.24;93.27
37206;BME280;23099;42.636;23.198;2022-09-09T05:58:15;92253.59;;;16.31;93.06
37206;BME280;23099;42.636;23.198;2022-09-09T06:00:42;92257.06;;;16.42;92.65
37206;BME280;23099;42.636;23.198;2022-09-09T06:03:10;92265.88;;;16.49;92.49
37206;BME280;23099;42.636;23.198;2022-09-09T06:05:37;92265.13;;;16.52;92.30
37206;BME280;23099;42.636;23.198;2022-09-09T06:08:06;92265.88;;;16.53;92.51
37206;BME280;23099;42.636;23.198;2022-09-09T06:10:32;92267.81;;;16.56;92.57
37206;BME280;23099;42.636;23.198;2022-09-09T06:13:00;92266.66;;;16.64;92.10
37206;BME280;23099;42.636;23.198;2022-09-09T06:15:26;92266.25;;;16.69;91.66
37206;BME280;23099;42.636;23.198;2022-09-09T06:17:55;92266.25;;;16.73;91.54
37206;BME280;23099;42.636;23.198;2022-09-09T06:20:22;92261.19;;;16.82;91.07
37206;BME280;23099;42.636;23.198;2022-09-09T06:22:49;92263.84;;;16.89;90.66
37206;BME280;23099;42.636;23.198;2022-09-09T06:25:17;92264.59;;;16.93;90.07
37206;BME280;23099;42.636;23.198;2022-09-09T06:27:48;92268.41;;;17.03;89.48
37206;BME280;23099;42.636;23.198;2022-09-09T06:30:16;92262.22;;;17.06;89.63
37206;BME280;23099;42.636;23.198;2022-09-09T06:32:43;92254.09;;;17.13;89.29
37206;BME280;23099;42.636;23.198;2022-09-09T06:35:10;92248.69;;;17.16;89.03
37206;BME280;23099;42.636;23.198;2022-09-09T06:37:37;92244.00;;;17.20;89.33
37206;BME280;23099;42.636;23.198;2022-09-09T06:40:04;92253.25;;;17.26;89.81
37206;BME280;23099;42.636;23.198;2022-09-09T06:42:32;92243.59;;;17.29;90.50
37206;BME280;23099;42.636;23.198;2022-09-09T06:44:59;92248.53;;;17.34;89.30
37206;BME280;23099;42.636;23.198;2022-09-09T06:47:26;92255.47;;;17.39;88.71
37206;BME280;23099;42.636;23.198;2022-09-09T06:49:54;92261.97;;;17.48;87.77
37206;BME280;23099;42.636;23.198;2022-09-09T06:52:21;92267.75;;;17.50;86.99
37206;BME280;23099;42.636;23.198;2022-09-09T06:54:49;92271.59;;;17.53;87.67
37206;BME280;23099;42.636;23.198;2022-09-09T06:57:16;92280.06;;;17.58;87.03
37206;BME280;23099;42.636;23.198;2022-09-09T06:59:44;92287.75;;;17.67;86.24
37206;BME280;23099;42.636;23.198;2022-09-09T07:02:11;92275.31;;;17.77;85.72
37206;BME280;23099;42.636;23.198;2022-09-09T07:04:37;92276.78;;;17.88;85.59
37206;BME280;23099;42.636;23.198;2022-09-09T07:07:04;92282.88;;;17.99;85.19
37206;BME280;23099;42.636;23.198;2022-09-09T07:09:31;92276.97;;;18.08;85.08
37206;BME280;23099;42.636;23.198;2022-09-09T07:11:57;92269.91;;;18.21;84.22
37206;BME280;23099;42.636;23.198;2022-09-09T07:14:25;92274.88;;;18.30;83.41
37206;BME280;23099;42.636;23.198;2022-09-09T07:16:54;92277.47;;;18.41;83.17
37206;BME280;23099;42.636;23.198;2022-09-09T07:19:21;92270.75;;;18.52;82.79
37206;BME280;23099;42.636;23.198;2022-09-09T07:21:47;92268.69;;;18.67;82.65
37206;BME280;23099;42.636;23.198;2022-09-09T07:24:14;92264.66;;;18.82;82.42
37206;BME280;23099;42.636;23.198;2022-09-09T07:26:41;92258.25;;;18.99;82.79
37206;BME280;23099;42.636;23.198;2022-09-09T07:29:09;92263.94;;;19.08;83.10
37206;BME280;23099;42.636;23.198;2022-09-09T07:31:39;92254.44;;;19.24;81.20
37206;BME280;23099;42.636;23.198;2022-09-09T07:34:07;92260.03;;;19.40;79.84
37206;BME280;23099;42.636;23.198;2022-09-09T07:36:36;92252.47;;;19.58;77.57
37206;BME280;23099;42.636;23.198;2022-09-09T07:39:05;92267.34;;;19.73;75.82
37206;BME280;23099;42.636;23.198;2022-09-09T07:41:34;92274.38;;;19.94;73.42
37206;BME280;23099;42.636;23.198;2022-09-09T07:44:05;92277.94;;;20.15;71.82
37206;BME280;23099;42.636;23.198;2022-09-09T07:46:32;92272.53;;;20.34;72.67
37206;BME280;23099;42.636;23.198;2022-09-09T07:48:59;92272.56;;;20.58;69.46
37206;BME280;23099;42.636;23.198;2022-09-09T07:51:28;92268.31;;;20.76;68.47
37206;BME280;23099;42.636;23.198;2022-09-09T07:53:58;92265.66;;;20.93;70.23
37206;BME280;23099;42.636;23.198;2022-09-09T07:56:26;92271.25;;;21.05;66.86
37206;BME280;23099;42.636;23.198;2022-09-09T07:58:53;92265.56;;;21.20;68.09
37206;BME280;23099;42.636;23.198;2022-09-09T08:01:23;92263.44;;;21.27;67.35
37206;BME280;23099;42.636;23.198;2022-09-09T08:03:54;92268.66;;;21.38;66.13
37206;BME280;23099;42.636;23.198;2022-09-09T08:06:21;92266.50;;;21.49;65.06
37206;BME280;23099;42.636;23.198;2022-09-09T08:08:51;92267.69;;;21.64;63.86
37206;BME280;23099;42.636;23.198;2022-09-09T08:11:21;92262.78;;;21.75;63.95
37206;BME280;23099;42.636;23.198;2022-09-09T08:13:48;92269.34;;;21.78;65.17
37206;BME280;23099;42.636;23.198;2022-09-09T08:16:17;92272.81;;;21.78;65.79
37206;BME280;23099;42.636;23.198;2022-09-09T08:18:47;92272.31;;;21.83;66.07
37206;BME280;23099;42.636;23.198;2022-09-09T08:21:16;92275.38;;;21.85;65.77
37206;BME280;23099;42.636;23.198;2022-09-09T08:23:45;92270.50;;;21.93;66.74
37206;BME280;23099;42.636;23.198;2022-09-09T08:26:15;92268.25;;;22.08;64.36
37206;BME280;23099;42.636;23.198;2022-09-09T08:28:43;92273.16;;;21.97;63.79
37206;BME280;23099;42.636;23.198;2022-09-09T08:31:11;92264.50;;;21.85;66.24
37206;BME280;23099;42.636;23.198;2022-09-09T08:33:39;92266.94;;;21.80;65.61
37206;BME280;23099;42.636;23.198;2022-09-09T08:36:09;92266.72;;;21.91;62.65
37206;BME280;23099;42.636;23.198;2022-09-09T08:38:37;92271.75;;;22.08;63.59
37206;BME280;23099;42.636;23.198;2022-09-09T08:41:20;92275.41;;;22.18;62.88
37206;BME280;23099;42.636;23.198;2022-09-09T08:44:02;92266.72;;;22.23;63.07
37206;BME280;23099;42.636;23.198;2022-09-09T08:46:35;92268.50;;;22.30;62.50
37206;BME280;23099;42.636;23.198;2022-09-09T08:49:17;92271.38;;;22.39;63.31
37206;BME280;23099;42.636;23.198;2022-09-09T08:51:46;92265.69;;;22.49;62.21
37206;BME280;23099;42.636;23.198;2022-09-09T08:54:15;92269.50;;;22.52;61.25
37206;BME280;23099;42.636;23.198;2022-09-09T08:56:43;92272.38;;;22.61;61.68
37206;BME280;23099;42.636;23.198;2022-09-09T08:59:13;92265.75;;;22.62;61.68
37206;BME280;23099;42.636;23.198;2022-09-09T09:02:07;92270.47;;;22.74;61.40
37206;BME280;23099;42.636;23.198;2022-09-09T09:04:49;92272.38;;;22.77;61.28
37206;BME280;23099;42.636;23.198;2022-09-09T09:07:21;92273.81;;;22.82;61.34
37206;BME280;23099;42.636;23.198;2022-09-09T09:09:58;92261.19;;;22.88;61.46
37206;BME280;23099;42.636;23.198;2022-09-09T09:12:32;92280.66;;;23.03;60.56
37206;BME280;23099;42.636;23.198;2022-09-09T09:15:02;92277.50;;;23.04;58.29
37206;BME280;23099;42.636;23.198;2022-09-09T09:17:37;92273.66;;;23.02;58.74
37206;BME280;23099;42.636;23.198;2022-09-09T09:20:11;92279.25;;;23.11;58.25
37206;BME280;23099;42.636;23.198;2022-09-09T09:22:44;92270.84;;;23.05;58.58
37206;BME280;23099;42.636;23.198;2022-09-09T09:25:17;92273.56;;;23.05;60.20
37206;BME280;23099;42.636;23.198;2022-09-09T09:27:51;92280.97;;;23.05;59.08
37206;BME280;23099;42.636;23.198;2022-09-09T09:30:22;92271.81;;;23.11;58.76
37206;BME280;23099;42.636;23.198;2022-09-09T09:32:56;92275.03;;;23.22;58.80
37206;BME280;23099;42.636;23.198;2022-09-09T09:35:25;92273.81;;;23.23;58.94
37206;BME280;23099;42.636;23.198;2022-09-09T09:37:52;92268.28;;;23.27;58.47
37206;BME280;23099;42.636;23.198;2022-09-09T09:40:21;92254.31;;;23.25;60.39
37206;BME280;23099;42.636;23.198;2022-09-09T09:42:52;92260.00;;;23.31;59.84
37206;BME280;23099;42.636;23.198;2022-09-09T09:45:28;92270.91;;;23.31;59.64
37206;BME280;23099;42.636;23.198;2022-09-09T09:48:00;92253.00;;;23.30;58.46
37206;BME280;23099;42.636;23.198;2022-09-09T09:50:29;92265.91;;;23.42;58.68
37206;BME280;23099;42.636;23.198;2022-09-09T09:52:58;92261.44;;;23.35;58.38
37206;BME280;23099;42.636;23.198;2022-09-09T09:55:25;92254.31;;;23.38;58.58
37206;BME280;23099;42.636;23.198;2022-09-09T09:57:54;92253.59;;;23.37;58.21
37206;BME280;23099;42.636;23.198;2022-09-09T10:00:26;92262.16;;;23.23;59.65
37206;BME280;23099;42.636;23.198;2022-09-09T10:02:53;92264.66;;;23.17;59.94
37206;BME280;23099;42.636;23.198;2022-09-09T10:05:22;92258.97;;;23.12;58.88
37206;BME280;23099;42.636;23.198;2022-09-09T10:08:04;92269.75;;;23.03;60.16
37206;BME280;23099;42.636;23.198;2022-09-09T10:10:42;92275.81;;;22.94;61.38
37206;BME280;23099;42.636;23.198;2022-09-09T10:13:19;92288.00;;;22.89;60.75
37206;BME280;23099;42.636;23.198;2022-09-09T10:15:58;92285.47;;;22.82;62.16
37206;BME280;23099;42.636;23.198;2022-09-09T10:18:42;92292.22;;;22.78;61.30
37206;BME280;23099;42.636;23.198;2022-09-09T10:21:21;92284.28;;;22.83;61.31
37206;BME280;23099;42.636;23.198;2022-09-09T10:24:04;92280.69;;;22.86;62.49
37206;BME280;23099;42.636;23.198;2022-09-09T10:26:44;92282.09;;;22.78;62.99
37206;BME280;23099;42.636;23.198;2022-09-09T10:29:26;92284.19;;;22.71;62.85
37206;BME280;23099;42.636;23.198;2022-09-09T10:32:06;92281.81;;;22.73;63.04
37206;BME280;23099;42.636;23.198;2022-09-09T10:34:52;92289.50;;;22.78;62.75
37206;BME280;23099;42.636;23.198;2022-09-09T10:37:35;92298.25;;;22.69;63.41
37206;BME280;23099;42.636;23.198;2022-09-09T10:40:17;92289.50;;;22.78;63.37
37206;BME280;23099;42.636;23.198;2022-09-09T10:42:46;92284.97;;;22.71;63.17
37206;BME280;23099;42.636;23.198;2022-09-09T10:45:18;92288.53;;;22.68;64.22
37206;BME280;23099;42.636;23.198;2022-09-09T10:50:51;92291.69;;;22.67;63.59
37206;BME280;23099;42.636;23.198;2022-09-09T10:53:22;92293.66;;;22.66;63.52
37206;BME280;23099;42.636;23.198;2022-09-09T10:55:56;92294.41;;;22.67;65.33
37206;BME280;23099;42.636;23.198;2022-09-09T10:58:37;92291.47;;;22.77;64.17
37206;BME280;23099;42.636;23.198;2022-09-09T11:01:15;92293.31;;;22.80;64.60
37206;BME280;23099;42.636;23.198;2022-09-09T11:03:43;92301.81;;;22.82;64.20
37206;BME280;23099;42.636;23.198;2022-09-09T11:06:17;92296.28;;;22.70;64.27
37206;BME280;23099;42.636;23.198;2022-09-09T11:08:46;92290.69;;;22.61;63.82
37206;BME280;23099;42.636;23.198;2022-09-09T11:11:19;92284.63;;;22.69;64.71
37206;BME280;23099;42.636;23.198;2022-09-09T11:13:52;92282.56;;;22.73;65.23
37206;BME280;23099;42.636;23.198;2022-09-09T11:16:27;92281.13;;;22.85;64.89
37206;BME280;23099;42.636;23.198;2022-09-09T11:18:59;92277.50;;;23.04;64.60
37206;BME280;23099;42.636;23.198;2022-09-09T11:21:30;92268.16;;;23.18;64.16
37206;BME280;23099;42.636;23.198;2022-09-09T11:24:01;92274.81;;;23.30;63.01
37206;BME280;23099;42.636;23.198;2022-09-09T11:26:34;92265.69;;;23.36;63.52
37206;BME280;23099;42.636;23.198;2022-09-09T11:29:17;92252.69;;;23.40;63.90
37206;BME280;23099;42.636;23.198;2022-09-09T11:32:00;92239.09;;;23.53;65.92
37206;BME280;23099;42.636;23.198;2022-09-09T11:34:39;92244.53;;;23.53;64.85
37206;BME280;23099;42.636;23.198;2022-09-09T11:40:15;92225.97;;;23.48;64.89
37206;BME280;23099;42.636;23.198;2022-09-09T11:42:43;92203.59;;;23.40;64.69
37206;BME280;23099;42.636;23.198;2022-09-09T11:45:19;92195.75;;;23.42;65.59
37206;BME280;23099;42.636;23.198;2022-09-09T11:47:53;92200.34;;;23.45;64.90
37206;BME280;23099;42.636;23.198;2022-09-09T11:50:32;92200.91;;;23.53;64.37
37206;BME280;23099;42.636;23.198;2022-09-09T11:53:14;92207.56;;;23.65;64.49
37206;BME280;23099;42.636;23.198;2022-09-09T11:55:45;92216.94;;;23.76;63.84
37206;BME280;23099;42.636;23.198;2022-09-09T11:58:17;92216.19;;;23.88;63.09
37206;BME280;23099;42.636;23.198;2022-09-09T12:00:46;92200.53;;;24.02;63.48
37206;BME280;23099;42.636;23.198;2022-09-09T12:06:16;92198.69;;;23.86;60.38
37206;BME280;23099;42.636;23.198;2022-09-09T12:08:48;92200.13;;;23.78;61.03
37206;BME280;23099;42.636;23.198;2022-09-09T12:11:25;92193.25;;;23.86;61.97
37206;BME280;23099;42.636;23.198;2022-09-09T12:13:54;92196.84;;;23.83;60.23
37206;BME280;23099;42.636;23.198;2022-09-09T12:16:29;92191.16;;;23.90;60.38
37206;BME280;23099;42.636;23.198;2022-09-09T12:19:15;92189.06;;;24.07;60.78
37206;BME280;23099;42.636;23.198;2022-09-09T12:21:50;92177.78;;;24.17;59.99
37206;BME280;23099;42.636;23.198;2022-09-09T12:24:24;92184.78;;;24.18;58.95
37206;BME280;23099;42.636;23.198;2022-09-09T12:26:58;92172.31;;;24.17;59.31
37206;BME280;23099;42.636;23.198;2022-09-09T12:29:38;92180.56;;;24.05;59.68
37206;BME280;23099;42.636;23.198;2022-09-09T12:32:11;92167.38;;;23.78;60.04
37206;BME280;23099;42.636;23.198;2022-09-09T12:34:41;92179.81;;;23.66;60.21
37206;BME280;23099;42.636;23.198;2022-09-09T12:37:16;92178.31;;;23.52;59.47
37206;BME280;23099;42.636;23.198;2022-09-09T12:39:48;92182.97;;;23.39;61.17
37206;BME280;23099;42.636;23.198;2022-09-09T12:42:18;92177.09;;;23.41;62.04
37206;BME280;23099;42.636;23.198;2022-09-09T12:44:52;92177.63;;;23.36;62.71
37206;BME280;23099;42.636;23.198;2022-09-09T12:47:21;92171.00;;;23.37;63.64
37206;BME280;23099;42.636;23.198;2022-09-09T12:49:50;92171.63;;;23.41;64.43
37206;BME280;23099;42.636;23.198;2022-09-09T12:52:24;92170.84;;;23.40;63.54
37206;BME280;23099;42.636;23.198;2022-09-09T12:54:52;92169.03;;;23.37;65.03
37206;BME280;23099;42.636;23.198;2022-09-09T12:57:22;92160.19;;;23.33;63.94
37206;BME280;23099;42.636;23.198;2022-09-09T12:59:51;92150.91;;;23.18;65.97
37206;BME280;23099;42.636;23.198;2022-09-09T13:02:20;92158.06;;;22.99;64.44
37206;BME280;23099;42.636;23.198;2022-09-09T13:04:47;92150.31;;;22.85;64.68
37206;BME280;23099;42.636;23.198;2022-09-09T13:07:16;92154.69;;;22.95;64.92
37206;BME280;23099;42.636;23.198;2022-09-09T13:09:45;92155.56;;;23.05;65.46
37206;BME280;23099;42.636;23.198;2022-09-09T13:12:15;92147.75;;;23.19;64.91
37206;BME280;23099;42.636;23.198;2022-09-09T13:14:45;92153.41;;;23.25;63.53
37206;BME280;23099;42.636;23.198;2022-09-09T13:17:20;92145.53;;;23.27;65.22
37206;BME280;23099;42.636;23.198;2022-09-09T13:19:48;92133.56;;;23.37;63.62